Time;durP1;ratioP1;P1;durP2;ratioP2;P2;SDS_P1;SDS_P2;PMS_P1;PMS_P2;Temp;Humidity;BMP_temperature;BMP_pressure;BME280_temperature;BME280_humidity;BME280_pressure;Samples;Min_cycle;Max_cycle;Signal;HPM_P1;HPM_P2
2022/08/19 00:01:19;;;;;;;4.72;1.10;;;;;;;20.05;100.00;99293.53;1735260;81;21398;-51
2022/08/19 00:03:46;;;;;;;4.05;0.70;;;;;;;19.99;100.00;99288.12;1736646;81;21375;-52
2022/08/19 00:06:12;;;;;;;2.08;0.70;;;;;;;19.94;100.00;99284.97;1738835;81;20872;-51
2022/08/19 00:08:40;;;;;;;5.22;0.90;;;;;;;19.89;100.00;99287.79;1733087;80;20947;-50
2022/08/19 00:11:07;;;;;;;6.42;1.00;;;;;;;19.86;100.00;99288.06;1737718;81;21577;-51
2022/08/19 00:13:33;;;;;;;7.33;0.90;;;;;;;19.84;100.00;99296.40;1740539;80;20856;-51
2022/08/19 00:16:00;;;;;;;1.90;1.10;;;;;;;19.83;100.00;99287.84;1736639;80;20926;-52
2022/08/19 00:18:26;;;;;;;4.67;1.02;;;;;;;19.85;100.00;99294.53;1736485;81;20971;-51
2022/08/19 00:20:53;;;;;;;3.27;1.05;;;;;;;19.85;100.00;99291.30;1737667;81;20990;-51
2022/08/19 00:23:19;;;;;;;3.27;1.05;;;;;;;19.85;100.00;99293.16;1701932;82;21195;-51
2022/08/19 00:25:46;;;;;;;3.15;1.40;;;;;;;19.84;100.00;99295.53;1732105;81;21035;-53
2022/08/19 00:28:12;;;;;;;6.75;0.90;;;;;;;19.81;100.00;99293.98;1735880;81;21125;-51
2022/08/19 00:30:39;;;;;;;2.95;0.90;;;;;;;19.78;100.00;99290.16;1736242;81;21058;-51
2022/08/19 00:33:05;;;;;;;8.48;2.80;;;;;;;19.74;100.00;99291.42;1693841;83;21058;-51
2022/08/19 00:35:33;;;;;;;6.17;1.30;;;;;;;19.70;100.00;99292.73;1737917;81;21595;-50
2022/08/19 00:37:59;;;;;;;3.85;0.85;;;;;;;19.66;100.00;99298.11;1701293;82;21322;-54
2022/08/19 00:40:26;;;;;;;2.87;0.80;;;;;;;19.62;100.00;99300.78;1734026;80;21043;-50
2022/08/19 00:42:55;;;;;;;3.00;0.75;;;;;;;19.57;100.00;99294.86;1736254;80;21728;-54
2022/08/19 00:45:25;;;;;;;7.05;1.05;;;;;;;19.52;100.00;99300.77;1697491;82;21090;-51
2022/08/19 00:47:52;;;;;;;3.25;0.93;;;;;;;19.47;100.00;99304.90;1739491;81;21731;-50
2022/08/19 00:50:20;;;;;;;7.50;1.15;;;;;;;19.45;100.00;99305.53;1733622;81;21030;-52
2022/08/19 00:52:48;;;;;;;4.92;1.07;;;;;;;19.42;100.00;99301.70;1733594;81;20922;-50
2022/08/19 00:55:19;;;;;;;2.62;0.82;;;;;;;19.39;100.00;99299.28;1735454;81;21048;-51
2022/08/19 00:57:54;;;;;;;2.17;1.22;;;;;;;19.35;100.00;99305.50;1738833;80;21033;-52
2022/08/19 01:00:21;;;;;;;5.97;1.02;;;;;;;19.33;100.00;99312.96;1733565;81;21606;-50
2022/08/19 01:02:48;;;;;;;5.65;1.32;;;;;;;19.31;100.00;99314.96;1734360;81;21563;-53
2022/08/19 01:05:19;;;;;;;4.53;1.00;;;;;;;19.30;100.00;99314.63;1738449;80;21630;-52
2022/08/19 01:07:47;;;;;;;3.75;1.05;;;;;;;19.29;100.00;99311.53;1713771;82;21375;-50
2022/08/19 01:10:16;;;;;;;2.33;0.90;;;;;;;19.28;100.00;99310.67;1732710;80;21105;-52
2022/08/19 01:12:42;;;;;;;4.47;0.90;;;;;;;19.29;100.00;99315.63;1738611;81;21607;-51
2022/08/19 01:15:10;;;;;;;4.12;1.12;;;;;;;19.27;100.00;99316.26;1735824;81;21050;-54
2022/08/19 01:17:38;;;;;;;5.08;1.00;;;;;;;19.23;100.00;99318.39;1735170;80;21391;-54
2022/08/19 01:20:08;;;;;;;1.75;0.80;;;;;;;19.16;100.00;99321.81;1698704;83;21592;-54
2022/08/19 01:22:53;;;;;;;4.35;1.30;;;;;;;19.12;100.00;99323.11;1682031;83;21075;-54
2022/08/19 01:25:24;;;;;;;6.45;1.10;;;;;;;19.07;100.00;99321.28;1733056;80;21594;-54
2022/08/19 01:27:52;;;;;;;2.12;0.82;;;;;;;19.01;100.00;99312.29;1736136;81;20998;-54
2022/08/19 01:30:22;;;;;;;2.80;0.90;;;;;;;18.97;100.00;99314.95;1738597;80;21508;-54
2022/08/19 01:32:50;;;;;;;4.17;0.80;;;;;;;18.92;100.00;99313.98;1737167;81;22369;-54
2022/08/19 01:35:17;;;;;;;4.20;0.82;;;;;;;18.88;100.00;99307.09;1733871;80;21113;-54
2022/08/19 01:37:48;;;;;;;3.50;0.88;;;;;;;18.85;100.00;99308.72;1735166;81;21220;-54
2022/08/19 01:40:15;;;;;;;10.48;1.00;;;;;;;18.81;100.00;99307.25;1734521;80;21041;-54
2022/08/19 01:42:41;;;;;;;3.77;0.90;;;;;;;18.77;100.00;99293.04;1736283;80;21057;-54
2022/08/19 01:45:09;;;;;;;3.25;0.90;;;;;;;18.76;100.00;99295.90;1736432;81;21104;-54
2022/08/19 01:47:36;;;;;;;1.40;0.80;;;;;;;18.76;100.00;99294.04;1737068;81;21084;-54
2022/08/19 01:50:05;;;;;;;3.15;0.98;;;;;;;18.76;100.00;99298.13;1737115;81;21239;-54
2022/08/19 01:52:31;;;;;;;6.22;1.40;;;;;;;18.77;100.00;99288.09;1733511;81;21180;-54
2022/08/19 01:54:58;;;;;;;3.70;0.93;;;;;;;18.79;100.00;99292.91;1736354;81;21026;-54
2022/08/19 01:57:25;;;;;;;5.47;1.52;;;;;;;18.79;100.00;99289.69;1736782;80;21626;-54
2022/08/19 01:59:52;;;;;;;1.82;0.90;;;;;;;18.81;100.00;99288.16;1734176;81;21093;-54
2022/08/19 02:02:18;;;;;;;8.18;1.07;;;;;;;18.81;100.00;99292.25;1676555;83;21099;-54
2022/08/19 02:04:45;;;;;;;1.50;1.00;;;;;;;18.80;100.00;99285.93;1737141;81;21306;-54
2022/08/19 02:07:12;;;;;;;3.02;0.82;;;;;;;18.79;100.00;99286.96;1737759;81;20945;-54
2022/08/19 02:09:38;;;;;;;5.03;1.35;;;;;;;18.80;100.00;99283.70;1731459;80;21079;-54
2022/08/19 02:12:07;;;;;;;6.15;1.00;;;;;;;18.78;100.00;99282.50;1732567;80;21719;-54
2022/08/19 02:14:35;;;;;;;3.35;1.10;;;;;;;18.76;100.00;99291.31;1735348;80;21970;-54
2022/08/19 02:17:02;;;;;;;4.08;1.10;;;;;;;18.74;100.00;99287.85;1736417;81;21129;-54
2022/08/19 02:19:28;;;;;;;3.50;1.10;;;;;;;18.73;100.00;99293.44;1737537;80;21704;-54
2022/08/19 02:21:55;;;;;;;2.52;1.00;;;;;;;18.70;100.00;99292.36;1733777;81;21088;-54
2022/08/19 02:24:21;;;;;;;5.65;1.20;;;;;;;18.65;100.00;99291.39;1701426;82;21537;-54
2022/08/19 02:26:48;;;;;;;4.92;1.20;;;;;;;18.63;100.00;99287.09;1668886;84;21565;-54
2022/08/19 02:29:14;;;;;;;7.85;1.65;;;;;;;18.61;100.00;99289.95;1676192;83;22221;-54
2022/08/19 02:31:41;;;;;;;3.30;1.15;;;;;;;18.59;100.00;99290.58;1736637;81;21021;-54
2022/08/19 02:34:07;;;;;;;5.28;1.70;;;;;;;18.57;100.00;99291.70;1737453;81;21053;-54
2022/08/19 02:36:35;;;;;;;4.42;1.50;;;;;;;18.55;100.00;99291.80;1734936;81;21075;-54
2022/08/19 02:39:01;;;;;;;1.92;1.10;;;;;;;18.53;100.00;99299.28;1738414;80;21113;-54
2022/08/19 02:41:31;;;;;;;5.30;1.30;;;;;;;18.53;100.00;99299.28;1736778;80;21137;-54
2022/08/19 02:44:00;;;;;;;2.90;1.10;;;;;;;18.54;100.00;99302.38;1739625;81;20974;-54
2022/08/19 02:46:29;;;;;;;5.28;1.00;;;;;;;18.54;100.00;99301.01;1700656;83;21237;-54
2022/08/19 02:48:59;;;;;;;5.87;1.22;;;;;;;18.54;100.00;99299.64;1735677;80;20916;-54
2022/08/19 02:51:29;;;;;;;2.42;1.17;;;;;;;18.51;100.00;99302.13;1737610;81;21103;-54
2022/08/19 02:53:56;;;;;;;2.25;1.10;;;;;;;18.51;100.00;99303.98;1732323;81;20887;-54
2022/08/19 02:56:26;;;;;;;3.33;1.15;;;;;;;18.51;100.00;99305.35;1736291;80;20926;-54
2022/08/19 02:58:52;;;;;;;2.45;1.10;;;;;;;18.50;100.00;99308.58;1736965;80;21394;-54
2022/08/19 03:01:23;;;;;;;4.22;1.00;;;;;;;18.52;100.00;99312.03;1740877;80;21363;-54
2022/08/19 03:03:50;;;;;;;3.35;1.05;;;;;;;18.53;100.00;99306.09;1745515;80;21220;-54
2022/08/19 03:06:17;;;;;;;4.90;0.93;;;;;;;18.54;100.00;99311.91;1745322;80;21030;-54
2022/08/19 03:08:45;;;;;;;3.05;1.12;;;;;;;18.53;100.00;99311.05;1737981;80;21593;-54
2022/08/19 03:11:22;;;;;;;4.58;1.20;;;;;;;18.53;100.00;99308.32;1742979;80;20944;-54
2022/08/19 03:13:53;;;;;;;5.45;1.10;;;;;;;18.53;100.00;99315.63;1743567;80;21448;-54
2022/08/19 03:16:18;;;;;;;2.90;1.00;;;;;;;18.52;100.00;99312.03;1742645;80;21129;-53
2022/08/19 03:18:44;;;;;;;2.42;1.02;;;;;;;18.51;100.00;99316.25;1739851;80;21072;-54
2022/08/19 03:21:17;;;;;;;3.15;1.15;;;;;;;18.50;100.00;99315.39;1739005;80;21075;-54
2022/08/19 03:23:44;;;;;;;7.35;1.10;;;;;;;18.49;100.00;99326.42;1741076;80;21057;-54
2022/08/19 03:26:10;;;;;;;3.27;1.27;;;;;;;18.48;100.00;99319.23;1736933;80;21098;-53
2022/08/19 03:28:38;;;;;;;4.17;1.30;;;;;;;18.48;100.00;99318.73;1737430;80;21971;-54
2022/08/19 03:31:11;;;;;;;2.02;1.10;;;;;;;18.49;100.00;99317.75;1740805;80;21607;-53
2022/08/19 03:33:38;;;;;;;3.22;1.00;;;;;;;18.50;100.00;99313.16;1703847;82;21071;-54
2022/08/19 03:36:14;;;;;;;4.08;1.10;;;;;;;18.54;100.00;99314.63;1736279;80;21113;-53
2022/08/19 03:38:48;;;;;;;3.70;1.20;;;;;;;18.57;100.00;99312.15;1740612;80;21069;-54
2022/08/19 03:41:18;;;;;;;2.02;1.22;;;;;;;18.61;100.00;99313.63;1703754;82;21671;-54
2022/08/19 03:43:48;;;;;;;4.22;0.95;;;;;;;18.65;100.00;99324.60;1741626;80;21101;-54
2022/08/19 03:46:17;;;;;;;3.70;1.27;;;;;;;18.68;100.00;99323.84;1738568;80;22144;-54
2022/08/19 03:48:44;;;;;;;2.75;1.30;;;;;;;18.75;100.00;99324.16;1741144;80;21033;-54
2022/08/19 03:51:20;;;;;;;6.53;1.32;;;;;;;18.82;100.00;99325.34;1705276;82;21140;-53
2022/08/19 03:53:46;;;;;;;5.10;1.20;;;;;;;18.89;100.00;99319.69;1739867;80;21080;-54
2022/08/19 03:56:13;;;;;;;12.88;1.77;;;;;;;18.96;100.00;99324.99;1740973;80;21041;-53
2022/08/19 03:58:40;;;;;;;7.65;1.30;;;;;;;19.03;100.00;99327.53;1739855;80;21505;-53
2022/08/19 04:01:14;;;;;;;6.87;1.50;;;;;;;19.10;100.00;99333.29;1739972;80;21058;-54
2022/08/19 04:03:41;;;;;;;5.60;1.50;;;;;;;19.13;100.00;99327.56;1740297;80;21104;-52
2022/08/19 04:06:17;;;;;;;10.80;1.98;;;;;;;19.17;100.00;99334.45;1735563;80;21212;-54
2022/08/19 04:08:45;;;;;;;2.00;1.20;;;;;;;19.22;100.00;99334.92;1733745;80;21057;-54
2022/08/19 04:11:15;;;;;;;5.03;1.30;;;;;;;19.31;100.00;99336.79;1734340;80;21476;-54
2022/08/19 04:13:43;;;;;;;2.92;1.50;;;;;;;19.38;100.00;99340.72;1738415;80;21054;-53
2022/08/19 04:16:10;;;;;;;3.58;1.70;;;;;;;19.47;100.00;99330.83;1739951;81;21536;-54
2022/08/19 04:18:37;;;;;;;5.22;1.40;;;;;;;19.58;100.00;99329.34;1736355;80;21995;-54
2022/08/19 04:21:04;;;;;;;5.30;1.30;;;;;;;19.80;100.00;99329.61;1742080;80;21006;-54
2022/08/19 04:23:31;;;;;;;5.60;1.25;;;;;;;20.05;100.00;99331.78;1745510;80;21515;-53
2022/08/19 04:25:57;;;;;;;4.22;1.87;;;;;;;20.23;100.00;99338.75;1742473;80;21040;-53
2022/08/19 04:28:24;;;;;;;3.27;1.42;;;;;;;20.34;100.00;99342.20;1732889;80;21144;-54
2022/08/19 04:30:53;;;;;;;6.15;1.52;;;;;;;20.47;100.00;99339.68;1740804;81;22448;-54
2022/08/19 04:33:22;;;;;;;2.87;1.45;;;;;;;20.58;100.00;99340.89;1744102;80;21045;-53
2022/08/19 04:35:51;;;;;;;3.22;1.85;;;;;;;20.70;100.00;99342.43;1743825;80;21025;-54
2022/08/19 04:38:20;;;;;;;7.20;1.30;;;;;;;20.84;100.00;99348.78;1743050;80;21084;-55
2022/08/19 04:43:35;;;;;;;5.83;1.52;;;;;;;21.12;100.00;99346.45;1743445;80;21250;-54
2022/08/19 04:46:10;;;;;;;7.60;1.10;;;;;;;21.18;100.00;99349.66;1738788;81;21556;-53
2022/08/19 04:48:37;;;;;;;2.95;1.42;;;;;;;21.22;100.00;99356.54;1740230;80;21054;-54
2022/08/19 04:51:07;;;;;;;7.30;1.42;;;;;;;21.22;100.00;99362.88;1742788;80;21087;-53
2022/08/19 04:53:36;;;;;;;3.55;1.45;;;;;;;21.22;100.00;99365.61;1740157;80;21109;-53
2022/08/19 04:56:15;;;;;;;10.68;1.60;;;;;;;21.18;100.00;99366.08;1706123;82;21861;-53
2022/08/19 04:58:43;;;;;;;6.55;1.50;;;;;;;21.14;100.00;99370.44;1742239;80;21580;-55
2022/08/19 05:01:17;;;;;;;6.97;1.37;;;;;;;21.05;100.00;99375.44;1734790;80;21102;-54
2022/08/19 05:03:43;;;;;;;4.53;1.10;;;;;;;20.99;100.00;99372.45;1736116;81;26602;-54
2022/08/19 05:06:12;;;;;;;6.15;1.00;;;;;;;20.94;100.00;99376.98;1733254;80;21043;-54
2022/08/19 05:08:43;;;;;;;5.47;1.00;;;;;;;20.92;100.00;99376.80;1737705;80;21114;-54
2022/08/19 05:11:14;;;;;;;2.85;1.22;;;;;;;20.91;100.00;99375.93;1734716;80;21359;-53
2022/08/19 05:13:43;;;;;;;2.95;1.15;;;;;;;20.90;100.00;99377.44;1732515;80;21129;-53
2022/08/19 05:16:10;;;;;;;6.53;1.37;;;;;;;20.89;100.00;99381.19;1732580;80;21085;-54
2022/08/19 05:24:08;;;;;;;5.20;1.00;;;;;;;20.82;100.00;99382.29;1735129;80;21101;-53
2022/08/19 05:26:42;;;;;;;3.98;1.17;;;;;;;20.83;100.00;99380.42;1700225;83;21091;-52
2022/08/19 05:29:08;;;;;;;6.95;1.10;;;;;;;20.84;100.00;99384.88;1734532;81;21390;-54
2022/08/19 05:31:36;;;;;;;9.43;1.30;;;;;;;20.85;100.00;99384.70;1734950;80;20907;-53
2022/08/19 05:34:03;;;;;;;2.87;0.98;;;;;;;20.89;100.00;99382.05;1738883;80;21513;-53
2022/08/19 05:36:39;;;;;;;3.17;1.37;;;;;;;20.93;100.00;99383.46;1733603;81;20912;-53
2022/08/19 05:39:07;;;;;;;5.03;0.98;;;;;;;20.95;100.00;99380.08;1696244;82;20970;-53
2022/08/19 05:41:34;;;;;;;5.30;1.07;;;;;;;20.97;100.00;99376.70;1738123;81;20908;-54
2022/08/19 05:44:02;;;;;;;5.20;0.90;;;;;;;20.99;100.00;99373.81;1737235;81;20911;-54
2022/08/19 05:46:30;;;;;;;6.85;1.32;;;;;;;21.02;100.00;99379.83;1736601;80;21093;-55
2022/08/19 05:48:56;;;;;;;7.35;1.00;;;;;;;21.05;100.00;99382.28;1738077;80;20998;-54
2022/08/19 05:51:24;;;;;;;2.52;0.93;;;;;;;21.10;100.00;99379.08;1735205;80;21055;-54
2022/08/19 05:53:51;;;;;;;3.27;1.00;;;;;;;21.18;100.00;99382.50;1734902;81;21112;-55
2022/08/19 05:56:17;;;;;;;4.65;1.12;;;;;;;21.25;100.00;99371.30;1737337;80;20947;-54
2022/08/19 05:58:44;;;;;;;4.10;0.80;;;;;;;21.32;100.00;99375.16;1731999;81;21212;-55
2022/08/19 06:01:16;;;;;;;7.87;1.15;;;;;;;21.37;100.00;99372.81;1676580;84;20989;-55
2022/08/19 06:03:43;;;;;;;7.83;1.00;;;;;;;21.39;100.00;99381.75;1735778;81;20950;-51
2022/08/19 06:06:11;;;;;;;9.18;1.55;;;;;;;21.37;100.00;99383.26;1735011;81;20963;-54
2022/08/19 06:08:38;;;;;;;5.28;1.00;;;;;;;21.39;100.00;99379.01;1732140;81;21016;-53
2022/08/19 06:11:26;;;;;;;3.05;0.98;;;;;;;21.45;100.00;99381.13;1730885;81;21453;-55
2022/08/19 06:13:53;;;;;;;7.72;1.20;;;;;;;21.51;100.00;99385.52;1728043;81;21069;-54
2022/08/19 06:16:24;;;;;;;5.37;0.95;;;;;;;21.53;100.00;99379.86;1733417;81;21062;-56
2022/08/19 06:18:52;;;;;;;5.47;1.30;;;;;;;21.58;100.00;99375.31;1725747;81;21120;-54
2022/08/19 06:21:22;;;;;;;7.72;1.30;;;;;;;21.61;100.00;99380.47;1729338;81;21065;-53
2022/08/19 06:23:49;;;;;;;5.45;1.12;;;;;;;21.64;100.00;99378.30;1733319;81;21235;-55
2022/08/19 07:30:10;;;;;;;3.72;1.10;;;;;;;21.70;100.00;99380.41;1508348;81;975395;-53
2022/08/19 07:32:36;;;;;;;3.08;1.00;;;;;;;21.70;100.00;99380.41;1626880;81;977291;-53
2022/08/19 07:35:04;;;;;;;6.12;0.90;;;;;;;22.98;100.00;99370.84;1733785;81;189376;-54
2022/08/19 07:37:31;;;;;;;9.68;1.00;;;;;;;22.95;100.00;99375.30;1733006;81;21407;-55
2022/08/19 07:39:57;;;;;;;8.13;1.33;;;;;;;23.02;100.00;99367.27;1724961;81;574390;-56
2022/08/19 07:42:26;;;;;;;6.37;1.12;;;;;;;22.99;100.00;99362.95;1724141;81;366354;-54
2022/08/19 07:44:56;;;;;;;3.47;0.90;;;;;;;23.04;100.00;99363.00;1735486;81;21077;-56
2022/08/19 07:47:22;;;;;;;3.08;1.40;;;;;;;23.04;100.00;99363.00;1728619;81;21129;-54
2022/08/19 07:49:49;;;;;;;6.67;1.10;;;;;;;23.20;100.00;99361.20;1698299;81;975035;-55
2022/08/19 07:52:16;;;;;;;7.40;0.98;;;;;;;23.32;100.00;99366.73;1664999;81;906114;-55
2022/08/19 07:54:43;;;;;;;7.72;1.57;;;;;;;23.39;100.00;99360.93;1729788;81;565264;-53
2022/08/19 07:57:15;;;;;;;10.03;1.23;;;;;;;23.36;100.00;99364.03;1633053;81;975063;-54
2022/08/19 07:59:42;;;;;;;9.83;1.00;;;;;;;23.36;100.00;99364.03;1732175;81;21045;-54
2022/08/19 08:02:08;;;;;;;3.17;1.07;;;;;;;23.37;100.00;99387.72;1733029;81;21237;-54
2022/08/19 08:10:07;;;;;;;8.88;1.80;;;;;;;23.44;100.00;99396.67;1715666;81;22089;-57
2022/08/19 08:12:41;;;;;;;7.08;1.00;;;;;;;23.48;100.00;99397.53;1716991;81;21477;-56
2022/08/19 08:15:11;;;;;;;2.60;0.70;;;;;;;23.55;100.00;99397.80;1718729;81;21083;-54
2022/08/19 08:17:39;;;;;;;4.78;0.90;;;;;;;23.60;100.00;99407.25;1714276;81;21049;-53
2022/08/19 08:20:07;;;;;;;6.45;1.40;;;;;;;23.65;100.00;99402.62;1684576;83;21050;-54
2022/08/19 08:25:23;;;;;;;6.35;1.20;;;;;;;23.73;100.00;99406.26;1715400;81;21037;-55
2022/08/19 08:27:53;;;;;;;5.65;1.10;;;;;;;23.81;100.00;99405.97;1713614;81;21418;-54
2022/08/19 08:30:22;;;;;;;6.47;1.12;;;;;;;23.86;100.00;99408.55;1709566;82;21046;-55
2022/08/19 08:32:48;;;;;;;4.90;0.93;;;;;;;23.90;100.00;99407.21;1717347;81;20962;-55
2022/08/19 08:35:17;;;;;;;4.80;1.00;;;;;;;23.91;100.00;99410.27;1722322;81;22142;-54
2022/08/19 08:37:45;;;;;;;8.23;0.90;;;;;;;23.94;100.00;99409.95;1717795;81;20974;-56
2022/08/19 08:40:48;;;;;;;6.90;1.47;;;;;;;23.97;100.00;99408.25;1718329;82;21162;-54
2022/08/19 08:43:34;;;;;;;7.30;1.17;;;;;;;23.98;100.00;99403.62;1717806;81;22208;-54
2022/08/19 08:46:09;;;;;;;12.95;1.30;;;;;;;23.99;100.00;99397.92;1711215;81;21028;-54
2022/08/19 08:49:11;;;;;;;4.22;1.00;;;;;;;24.06;100.00;99400.38;1689052;83;21053;-55
2022/08/19 08:51:47;;;;;;;7.50;1.25;;;;;;;24.17;100.00;99400.55;1714891;81;21175;-54
2022/08/19 08:54:17;;;;;;;5.95;1.35;;;;;;;24.20;100.00;99407.09;1712370;81;22230;-56
2022/08/19 08:56:44;;;;;;;6.83;1.60;;;;;;;24.23;100.00;99405.43;1716091;81;20934;-57
2022/08/19 08:59:28;;;;;;;10.08;1.57;;;;;;;24.26;100.00;99408.33;1697262;82;20927;-56
2022/08/19 09:01:54;;;;;;;5.20;1.00;;;;;;;24.28;100.00;99418.66;1717007;81;20899;-55
2022/08/19 09:04:22;;;;;;;5.90;1.00;;;;;;;24.31;100.00;99404.58;1734053;81;20914;-55
2022/08/19 09:07:03;;;;;;;5.12;1.30;;;;;;;24.34;100.00;99406.45;1732548;81;21044;-54
2022/08/19 09:09:38;;;;;;;7.10;1.17;;;;;;;24.39;100.00;99408.20;1724449;82;21500;-55
2022/08/19 09:12:28;;;;;;;8.60;1.00;;;;;;;24.42;100.00;99405.60;1735914;82;21430;-56
2022/08/19 09:15:05;;;;;;;5.83;1.00;;;;;;;24.44;100.00;99415.92;1737738;81;21500;-56
2022/08/19 09:17:33;;;;;;;2.83;1.17;;;;;;;24.49;100.00;99408.91;1736224;80;21367;-56
2022/08/19 09:20:08;;;;;;;11.18;1.10;;;;;;;24.55;100.00;99412.85;1731292;81;21984;-56
2022/08/19 09:22:37;;;;;;;4.15;1.50;;;;;;;24.61;100.00;99412.67;1715393;81;21103;-56
2022/08/19 09:25:05;;;;;;;4.92;1.02;;;;;;;24.65;100.00;99409.42;1694062;82;21677;-55
2022/08/19 09:27:32;;;;;;;7.10;1.42;;;;;;;24.67;100.00;99418.89;1733225;81;21490;-55
2022/08/19 09:29:58;;;;;;;4.58;1.05;;;;;;;24.70;100.00;99421.27;1726377;80;21088;-56
2022/08/19 09:32:26;;;;;;;6.10;1.65;;;;;;;24.69;100.00;99412.16;1733573;80;21267;-55
2022/08/19 09:34:54;;;;;;;6.53;1.22;;;;;;;24.70;100.00;99415.77;1729717;80;21116;-55
2022/08/19 09:37:22;;;;;;;5.80;1.00;;;;;;;24.71;100.00;99418.36;1728200;80;21623;-52
2022/08/19 09:39:48;;;;;;;6.70;1.52;;;;;;;24.73;100.00;99423.70;1740127;80;21097;-52
2022/08/19 09:42:15;;;;;;;9.48;1.40;;;;;;;24.72;100.00;99418.70;1732330;80;22385;-56
2022/08/19 09:44:41;;;;;;;7.70;1.37;;;;;;;24.73;100.00;99421.80;1733864;82;21051;-55
2022/08/19 09:47:09;;;;;;;3.60;1.30;;;;;;;24.78;100.00;99429.53;1734620;80;21066;-55
2022/08/19 09:49:37;;;;;;;6.72;1.57;;;;;;;24.80;100.00;99419.22;1732105;82;21394;-56
2022/08/19 09:52:04;;;;;;;6.80;0.90;;;;;;;24.82;100.00;99416.64;1740494;80;21532;-56
2022/08/19 09:54:30;;;;;;;4.97;0.95;;;;;;;24.86;100.00;99418.52;1739924;80;21340;-55
2022/08/19 09:56:59;;;;;;;10.05;1.37;;;;;;;24.88;100.00;99420.59;1734008;80;21409;-58
2022/08/19 09:59:27;;;;;;;6.62;2.77;;;;;;;24.89;100.00;99432.81;1737332;80;21038;-57
2022/08/19 10:01:53;;;;;;;5.30;1.07;;;;;;;24.90;100.00;99429.54;1734504;81;21444;-55
2022/08/19 10:04:20;;;;;;;2.80;1.20;;;;;;;24.87;100.00;99432.62;1733278;80;21464;-58
2022/08/19 10:06:48;;;;;;;9.08;1.12;;;;;;;24.89;100.00;99436.08;1737501;81;21101;-55
2022/08/19 10:09:17;;;;;;;6.00;1.47;;;;;;;24.94;100.00;99439.19;1739041;80;21134;-57
2022/08/19 10:11:49;;;;;;;7.47;1.20;;;;;;;25.02;100.00;99448.81;1741629;81;21020;-55
2022/08/19 10:15:06;;;;;;;10.03;1.12;;;;;;;25.09;100.00;99438.00;1766141;79;22491;-55
2022/08/19 10:17:34;;;;;;;9.15;1.25;;;;;;;25.09;100.00;99434.73;1737195;81;20985;-55
2022/08/19 10:20:04;;;;;;;5.78;1.20;;;;;;;25.12;100.00;99437.11;1740503;81;21127;-56
2022/08/19 10:22:30;;;;;;;11.12;1.80;;;;;;;25.13;100.00;99431.95;1734795;80;21069;-54
2022/08/19 10:24:57;;;;;;;6.28;1.82;;;;;;;25.17;100.00;99439.36;1736078;81;21038;-55
2022/08/19 10:27:23;;;;;;;9.23;1.40;;;;;;;25.19;100.00;99440.02;1734799;81;21456;-55
2022/08/19 10:29:50;;;;;;;3.60;1.20;;;;;;;25.21;100.00;99442.95;1734186;80;21253;-56
2022/08/19 10:32:16;;;;;;;8.45;1.65;;;;;;;25.25;100.00;99442.95;1737227;81;21294;-54
2022/08/19 10:34:43;;;;;;;4.70;1.12;;;;;;;25.27;100.00;99442.76;1735288;81;20968;-54
2022/08/19 10:37:09;;;;;;;5.58;1.40;;;;;;;25.28;100.00;99442.24;1727588;80;21057;-54
2022/08/19 10:39:36;;;;;;;4.30;1.42;;;;;;;25.32;100.00;99443.63;1735280;80;21066;-55
2022/08/19 10:42:07;;;;;;;2.17;1.20;;;;;;;25.36;100.00;99447.73;1734920;80;21089;-56
2022/08/19 10:44:35;;;;;;;8.10;1.65;;;;;;;25.40;100.00;99459.63;1736371;81;21647;-58
2022/08/19 10:47:03;;;;;;;9.95;1.70;;;;;;;25.46;100.00;99445.65;1734830;81;21069;-55
2022/08/19 10:49:30;;;;;;;12.33;1.50;;;;;;;25.49;100.00;99454.95;1736779;81;21069;-56
2022/08/19 10:57:29;;;;;;;6.85;1.40;;;;;;;25.54;100.00;99472.66;1730412;80;21557;-56
2022/08/19 10:59:55;;;;;;;13.53;1.50;;;;;;;25.54;100.00;99468.53;1705886;82;21049;-55
2022/08/19 11:02:22;;;;;;;2.67;1.32;;;;;;;25.57;100.00;99476.45;1706696;82;21041;-56
2022/08/19 11:04:49;;;;;;;6.35;0.93;;;;;;;25.57;100.00;99470.95;1705919;82;21066;-56
2022/08/19 11:07:16;;;;;;;6.92;1.15;;;;;;;25.58;100.00;99481.45;1704626;81;21025;-55
2022/08/19 11:09:46;;;;;;;5.97;1.40;;;;;;;25.52;100.00;99473.35;1709234;82;21155;-55
2022/08/19 11:12:13;;;;;;;8.90;1.32;;;;;;;25.46;100.00;99477.34;1703235;81;21104;-52
2022/08/19 11:14:40;;;;;;;7.22;2.20;;;;;;;25.38;100.00;99479.59;1700871;81;21072;-55
2022/08/19 11:17:06;;;;;;;4.22;1.57;;;;;;;25.30;100.00;99469.10;1698081;82;21066;-56
2022/08/19 11:19:35;;;;;;;3.45;1.30;;;;;;;25.22;100.00;99466.70;1689958;82;21371;-56
2022/08/19 11:22:02;;;;;;;4.15;1.00;;;;;;;25.17;100.00;99475.16;1694783;83;21647;-55
2022/08/19 11:24:29;;;;;;;4.40;1.10;;;;;;;25.16;100.00;99481.70;1696003;82;21482;-55
2022/08/19 11:26:59;;;;;;;4.28;1.05;;;;;;;25.16;100.00;99476.19;1697343;82;22260;-57
2022/08/19 11:29:27;;;;;;;6.53;1.27;;;;;;;25.15;100.00;99479.46;1667319;83;21592;-56
2022/08/19 11:31:54;;;;;;;4.72;1.12;;;;;;;25.14;100.00;99472.74;1694927;83;21124;-55
2022/08/19 11:34:23;;;;;;;3.15;1.00;;;;;;;25.16;100.00;99474.81;1688752;82;21268;-56
2022/08/19 11:36:50;;;;;;;3.05;1.22;;;;;;;25.17;100.00;99473.27;1697659;83;21540;-56
2022/08/19 11:39:20;;;;;;;6.92;1.40;;;;;;;25.20;100.00;99477.03;1695171;83;21443;-57
2022/08/19 11:41:47;;;;;;;1.77;1.10;;;;;;;25.19;100.00;99476.69;1694782;83;20998;-56
2022/08/19 11:44:14;;;;;;;4.78;1.00;;;;;;;25.21;100.00;99471.02;1696246;82;20969;-56
2022/08/19 11:46:41;;;;;;;3.95;1.07;;;;;;;25.24;100.00;99472.05;1699849;83;21416;-55
2022/08/19 11:49:09;;;;;;;7.45;1.02;;;;;;;25.22;100.00;99471.36;1697689;83;20930;-56
2022/08/19 11:51:36;;;;;;;5.05;1.55;;;;;;;25.17;100.00;99471.03;1694277;82;20903;-56
2022/08/19 11:54:04;;;;;;;3.45;1.12;;;;;;;25.15;100.00;99475.84;1690548;83;20962;-56
2022/08/19 11:56:31;;;;;;;4.12;1.37;;;;;;;25.14;100.00;99479.11;1671552;83;21011;-55
2022/08/19 11:58:57;;;;;;;8.65;1.52;;;;;;;25.13;100.00;99475.15;1691437;83;21858;-56
2022/08/19 12:01:25;;;;;;;6.37;2.35;;;;;;;25.08;100.00;99478.44;1697167;82;21977;-56
2022/08/19 12:03:53;;;;;;;5.87;1.45;;;;;;;25.03;100.00;99475.84;1696806;82;20987;-56
2022/08/19 12:06:29;;;;;;;2.90;1.17;;;;;;;24.98;100.00;99479.12;1693276;82;21014;-56
2022/08/19 12:08:56;;;;;;;5.65;1.10;;;;;;;24.94;100.00;99482.37;1692920;82;20959;-56
2022/08/19 12:11:23;;;;;;;6.37;1.15;;;;;;;24.88;100.00;99485.28;1695994;82;21084;-57
2022/08/19 12:13:50;;;;;;;5.70;1.02;;;;;;;24.83;100.00;99478.93;1699695;82;21530;-57
2022/08/19 12:16:19;;;;;;;8.55;1.10;;;;;;;24.82;100.00;99478.58;1695312;82;20923;-56
2022/08/19 12:18:46;;;;;;;3.70;0.85;;;;;;;24.82;100.00;99479.09;1697260;82;20969;-56
2022/08/19 12:21:15;;;;;;;5.35;1.22;;;;;;;24.82;100.00;99478.58;1697471;82;21326;-56
2022/08/19 12:23:42;;;;;;;7.37;1.65;;;;;;;24.83;100.00;99473.94;1700312;82;21079;-56
2022/08/19 12:26:09;;;;;;;4.45;1.00;;;;;;;24.84;100.00;99483.37;1699199;83;21052;-56
2022/08/19 12:28:37;;;;;;;3.42;0.95;;;;;;;24.84;100.00;99476.48;1701328;82;21127;-57
2022/08/19 12:31:03;;;;;;;6.20;1.00;;;;;;;24.83;100.00;99467.05;1699529;82;21089;-56
2022/08/19 12:33:31;;;;;;;7.28;1.10;;;;;;;24.82;100.00;99462.06;1695915;82;21083;-57
2022/08/19 12:36:03;;;;;;;2.22;0.90;;;;;;;24.80;100.00;99465.50;1689065;82;21142;-56
2022/08/19 12:38:30;;;;;;;4.00;1.00;;;;;;;24.79;100.00;99465.66;1695192;82;21078;-56
2022/08/19 12:40:56;;;;;;;7.90;1.07;;;;;;;24.75;100.00;99468.42;1700124;82;21080;-57
2022/08/19 12:43:22;;;;;;;2.35;1.07;;;;;;;24.70;100.00;99475.80;1699394;82;21449;-57
2022/08/19 12:45:49;;;;;;;8.48;1.70;;;;;;;24.68;100.00;99475.11;1698129;82;21520;-57
2022/08/19 12:48:15;;;;;;;4.90;0.90;;;;;;;24.70;100.00;99478.55;1696024;82;21254;-56
2022/08/19 12:50:48;;;;;;;4.60;1.00;;;;;;;24.72;100.00;99479.25;1696959;82;21725;-57
2022/08/19 12:53:13;;;;;;;3.58;0.80;;;;;;;24.74;100.00;99477.20;1697190;82;21134;-57
2022/08/19 12:55:42;;;;;;;3.27;0.95;;;;;;;24.76;100.00;99469.61;1698273;82;21392;-57
2022/08/19 12:58:10;;;;;;;6.15;0.98;;;;;;;24.77;100.00;99474.08;1697064;82;21065;-56